weather.gov     
National Weather Service

Terminal Aerodrome Forecast
NWS Homepage
This page is being discontinued on March 12, 2014.
The same data is available at this site. Please update your bookmarks.
Thank you, and we apologize for the inconvenience.
Please send an email to SR-SRH.Webmaster@noaa.gov with any concerns.


Current Version
Previous Version:    01  02  03  04  05  06  07  08  09  10  11  12  13  14  15  16  17  18  19  20  21  22  23  24  25  26  27  28  29  30  
   31  32  33  34  35  36  37  38  39  40  41  42  43  44  45  46  47  48  49  50  51  52  53  54  55  56  57  58  59  60  
[Printable]
690
FTUS45 KBOU 310700 AAA
TAFDEN
TAF AMD
KDEN 310700Z 3107/0112 34007KT P6SM SCT070 BKN090 OVC110
     FM310800 33006KT P6SM SCT050 BKN070 OVC110
     FM311200 29006KT P6SM VCSH SCT045 BKN060 BKN100
      TEMPO 3112/3116 BKN040
     FM311600 31006KT P6SM SCT050 BKN070
     FM312000 35010KT P6SM BKN045 BKN060
     FM312200 03008KT P6SM VCSH SCT030 BKN040 OVC060
      TEMPO 3123/0103 4SM -SHRASN OVC030=




690
FTUS45 KBOU 310700 AAA
TAFDEN
TAF AMD
KDEN 310700Z 3107/0112 34007KT P6SM SCT070 BKN090 OVC110
     FM310800 33006KT P6SM SCT050 BKN070 OVC110
     FM311200 29006KT P6SM VCSH SCT045 BKN060 BKN100
      TEMPO 3112/3116 BKN040
     FM311600 31006KT P6SM SCT050 BKN070
     FM312000 35010KT P6SM BKN045 BKN060
     FM312200 03008KT P6SM VCSH SCT030 BKN040 OVC060
      TEMPO 3123/0103 4SM -SHRASN OVC030=


U.S. Dept. of Commerce
NOAA National Weather Service
1325 East West Highway
Silver Spring, MD 20910
E-mail: w-nws.webmaster@noaa.gov
Page last modified: May 16, 2007
NATIONAL WEATHER SERVICE: for Safety, for Work, for Fun - FOR LIFE